Time;durP1;ratioP1;P1;durP2;ratioP2;P2;SDS_P1;SDS_P2;PMS_P1;PMS_P2;Temp;Humidity;BMP_temperature;BMP_pressure;BME280_temperature;BME280_humidity;BME280_pressure;Samples;Min_cycle;Max_cycle;Signal;HPM_P1;HPM_P2
2023/03/14 00:00:39;;;;;;;2.73;1.30;;;;;;;;;;5043783;28;20553;-74
2023/03/14 00:03:05;;;;;;;2.37;1.40;;;;;;;;;;5045848;28;20213;-75
2023/03/14 00:05:31;;;;;;;2.97;1.80;;;;;;;;;;5044915;28;20178;-75
2023/03/14 00:07:57;;;;;;;2.30;1.30;;;;;;;;;;5045798;28;20193;-75
2023/03/14 00:10:24;;;;;;;2.23;1.40;;;;;;;;;;5045198;28;20739;-74
2023/03/14 00:12:50;;;;;;;2.60;1.43;;;;;;;;;;5044151;28;20356;-75
2023/03/14 00:15:16;;;;;;;1.43;1.10;;;;;;;;;;5046727;28;20821;-74
2023/03/14 00:17:44;;;;;;;1.90;1.40;;;;;;;;;;5044562;28;20182;-75
2023/03/14 00:20:11;;;;;;;3.57;1.80;;;;;;;;;;5042404;28;20744;-74
2023/03/14 00:22:40;;;;;;;7.30;3.30;;;;;;;;;;5041547;28;20281;-75
2023/03/14 00:25:07;;;;;;;4.57;2.33;;;;;;;;;;5037945;28;20205;-74
2023/03/14 00:27:33;;;;;;;3.77;1.57;;;;;;;;;;5046285;28;20182;-75
2023/03/14 00:30:00;;;;;;;1.80;1.40;;;;;;;;;;5045849;28;20190;-75
2023/03/14 00:32:26;;;;;;;3.20;1.30;;;;;;;;;;5041838;28;20181;-75
2023/03/14 00:34:52;;;;;;;2.37;1.20;;;;;;;;;;5041425;28;20219;-74
2023/03/14 00:37:18;;;;;;;2.37;1.27;;;;;;;;;;5045941;28;20206;-74
2023/03/14 00:39:45;;;;;;;1.90;1.40;;;;;;;;;;5047477;28;20185;-75
2023/03/14 00:42:11;;;;;;;2.33;1.10;;;;;;;;;;5047960;28;20194;-75
2023/03/14 00:44:37;;;;;;;1.30;1.10;;;;;;;;;;5041287;28;20202;-75
2023/03/14 00:47:06;;;;;;;2.20;1.43;;;;;;;;;;5029949;28;20197;-75
2023/03/14 00:49:33;;;;;;;1.57;1.07;;;;;;;;;;5048886;28;20846;-75
2023/03/14 00:51:59;;;;;;;1.03;0.93;;;;;;;;;;5048556;28;21637;-74
2023/03/14 00:54:25;;;;;;;1.77;1.10;;;;;;;;;;5048155;28;20312;-75
2023/03/14 00:56:52;;;;;;;3.13;1.10;;;;;;;;;;5027866;28;20224;-75
2023/03/14 00:59:19;;;;;;;2.07;1.27;;;;;;;;;;5044241;28;20196;-75
2023/03/14 01:01:45;;;;;;;1.40;1.20;;;;;;;;;;5044398;28;20197;-75
2023/03/14 01:04:12;;;;;;;8.93;3.50;;;;;;;;;;5047183;28;20225;-75
2023/03/14 01:06:39;;;;;;;5.67;1.40;;;;;;;;;;5048806;28;20186;-75
2023/03/14 01:09:05;;;;;;;3.27;1.40;;;;;;;;;;5049491;28;20209;-75
2023/03/14 01:11:33;;;;;;;4.63;1.53;;;;;;;;;;5047290;28;20707;-75
2023/03/14 01:13:59;;;;;;;2.27;1.23;;;;;;;;;;5048262;28;20305;-74
2023/03/14 01:16:29;;;;;;;2.30;1.10;;;;;;;;;;5046503;28;20251;-75
2023/03/14 01:18:56;;;;;;;2.43;1.30;;;;;;;;;;5046022;28;20240;-75
2023/03/14 01:21:23;;;;;;;3.63;1.40;;;;;;;;;;5029573;28;20190;-75
2023/03/14 01:23:50;;;;;;;1.73;1.10;;;;;;;;;;5058451;28;20204;-75
2023/03/14 01:26:18;;;;;;;1.50;1.10;;;;;;;;;;5060254;28;20262;-75
2023/03/14 01:28:46;;;;;;;2.30;1.27;;;;;;;;;;5038260;28;20178;-75
2023/03/14 01:31:12;;;;;;;3.60;1.30;;;;;;;;;;5042482;28;20272;-75
2023/03/14 01:33:39;;;;;;;2.37;1.60;;;;;;;;;;5045524;28;20263;-75
2023/03/14 01:36:06;;;;;;;3.33;1.40;;;;;;;;;;5009739;28;20201;-76
2023/03/14 01:38:33;;;;;;;4.73;1.73;;;;;;;;;;5047779;28;20189;-75
2023/03/14 01:41:00;;;;;;;4.23;1.30;;;;;;;;;;5042868;28;20182;-75
2023/03/14 01:43:26;;;;;;;2.27;1.20;;;;;;;;;;5028211;28;20755;-75
2023/03/14 01:46:05;;;;;;;2.23;1.30;;;;;;;;;;5043782;28;20177;-74
2023/03/14 01:48:38;;;;;;;5.47;2.97;;;;;;;;;;5043382;28;20185;-75
2023/03/14 01:51:11;;;;;;;3.67;1.70;;;;;;;;;;5046529;28;20220;-75
2023/03/14 01:53:38;;;;;;;2.87;1.90;;;;;;;;;;5045411;28;20205;-75
2023/03/14 01:56:05;;;;;;;2.37;1.50;;;;;;;;;;5024885;28;20595;-75
2023/03/14 01:58:34;;;;;;;2.40;1.50;;;;;;;;;;5044229;28;20193;-75
2023/03/14 02:01:01;;;;;;;3.63;1.20;;;;;;;;;;5043808;28;20181;-75
2023/03/14 02:03:29;;;;;;;2.20;1.30;;;;;;;;;;5041608;28;20982;-75
2023/03/14 02:05:57;;;;;;;2.87;2.20;;;;;;;;;;5042111;28;20205;-74
2023/03/14 02:08:24;;;;;;;4.87;1.80;;;;;;;;;;5025616;28;20189;-75
2023/03/14 02:10:57;;;;;;;1.77;1.17;;;;;;;;;;5043192;28;20189;-74
2023/03/14 02:13:43;;;;;;;1.60;1.10;;;;;;;;;;5042804;28;20205;-75
2023/03/14 02:16:28;;;;;;;1.80;1.07;;;;;;;;;;5044089;28;20201;-75
2023/03/14 02:19:06;;;;;;;3.07;1.43;;;;;;;;;;5042351;28;20189;-75
2023/03/14 02:22:08;;;;;;;1.73;1.20;;;;;;;;;;5059057;28;20200;-75
2023/03/14 02:24:47;;;;;;;2.20;1.10;;;;;;;;;;5041613;28;20717;-75
2023/03/14 02:27:15;;;;;;;3.97;1.20;;;;;;;;;;5044623;28;20178;-75
2023/03/14 02:29:54;;;;;;;2.90;1.23;;;;;;;;;;5043373;28;20189;-75
2023/03/14 02:32:22;;;;;;;2.63;1.40;;;;;;;;;;5038790;28;20190;-75
2023/03/14 02:34:50;;;;;;;1.33;1.10;;;;;;;;;;5024413;28;20602;-75
2023/03/14 02:37:17;;;;;;;2.27;1.03;;;;;;;;;;5027496;28;20269;-75
2023/03/14 02:39:45;;;;;;;2.17;1.37;;;;;;;;;;5043487;28;20174;-75
2023/03/14 02:42:13;;;;;;;4.17;1.50;;;;;;;;;;5044666;28;20189;-75
2023/03/14 02:44:59;;;;;;;3.40;1.10;;;;;;;;;;5041817;28;20250;-75
2023/03/14 02:47:31;;;;;;;2.03;1.10;;;;;;;;;;5055651;28;20545;-75
2023/03/14 02:50:03;;;;;;;4.77;1.63;;;;;;;;;;5035934;28;20702;-75
2023/03/14 02:52:30;;;;;;;1.70;1.30;;;;;;;;;;5037966;28;20198;-76
2023/03/14 02:54:56;;;;;;;2.93;1.10;;;;;;;;;;5042859;28;20206;-75
2023/03/14 02:57:24;;;;;;;6.00;1.80;;;;;;;;;;5043122;28;20822;-75
2023/03/14 02:59:50;;;;;;;4.07;1.40;;;;;;;;;;5044655;28;20199;-74
2023/03/14 03:02:19;;;;;;;3.43;1.40;;;;;;;;;;5044467;28;20186;-74
2023/03/14 03:04:45;;;;;;;3.67;1.47;;;;;;;;;;5039816;28;20749;-74
2023/03/14 03:07:11;;;;;;;2.97;1.30;;;;;;;;;;5039062;28;20242;-74
2023/03/14 03:09:37;;;;;;;2.57;1.30;;;;;;;;;;5055394;28;20292;-74
2023/03/14 03:12:05;;;;;;;3.13;1.40;;;;;;;;;;5043087;28;20181;-74
2023/03/14 03:14:32;;;;;;;3.13;1.27;;;;;;;;;;5034732;28;20473;-74
2023/03/14 03:17:01;;;;;;;4.37;1.50;;;;;;;;;;5027271;28;20303;-74
2023/03/14 03:19:27;;;;;;;2.93;1.70;;;;;;;;;;5045505;28;20193;-74
2023/03/14 03:21:54;;;;;;;3.70;1.50;;;;;;;;;;5027657;28;20904;-75
2023/03/14 03:24:20;;;;;;;3.63;1.27;;;;;;;;;;5045126;28;20217;-75
2023/03/14 03:26:46;;;;;;;3.53;1.30;;;;;;;;;;5045128;28;20174;-75
2023/03/14 03:29:12;;;;;;;7.80;3.10;;;;;;;;;;5045904;28;20256;-74
2023/03/14 03:31:39;;;;;;;3.20;1.60;;;;;;;;;;5043322;28;20197;-75
2023/03/14 03:34:05;;;;;;;2.57;1.27;;;;;;;;;;5026407;28;20608;-75
2023/03/14 03:36:31;;;;;;;3.30;1.40;;;;;;;;;;5044596;28;20235;-75
2023/03/14 03:38:59;;;;;;;2.90;1.50;;;;;;;;;;5043169;28;20186;-75
2023/03/14 03:41:26;;;;;;;5.37;2.10;;;;;;;;;;5042542;28;20209;-74
2023/03/14 03:43:53;;;;;;;2.97;1.40;;;;;;;;;;5044729;28;20227;-75
2023/03/14 03:46:20;;;;;;;3.23;1.30;;;;;;;;;;5041208;28;20605;-74
2023/03/14 03:48:46;;;;;;;4.67;1.37;;;;;;;;;;5038264;28;20741;-74
2023/03/14 03:51:16;;;;;;;1.97;1.10;;;;;;;;;;5002679;28;20212;-74
2023/03/14 03:53:43;;;;;;;3.03;1.50;;;;;;;;;;5045203;28;20259;-74
2023/03/14 03:56:12;;;;;;;3.33;1.20;;;;;;;;;;5044131;28;20570;-75
2023/03/14 03:58:39;;;;;;;2.77;1.40;;;;;;;;;;5045311;28;20339;-75
2023/03/14 04:01:06;;;;;;;2.77;1.20;;;;;;;;;;5045186;28;20194;-75
2023/03/14 04:03:33;;;;;;;4.50;1.60;;;;;;;;;;5044428;28;20210;-75
2023/03/14 04:06:06;;;;;;;3.23;1.40;;;;;;;;;;5043640;28;20178;-75
2023/03/14 04:08:35;;;;;;;2.60;1.30;;;;;;;;;;5045395;28;20232;-75
2023/03/14 04:11:02;;;;;;;5.23;1.33;;;;;;;;;;5046034;28;21504;-74
2023/03/14 04:13:45;;;;;;;3.50;1.50;;;;;;;;;;5043036;28;20922;-75
2023/03/14 04:16:16;;;;;;;2.63;1.30;;;;;;;;;;5043569;28;20273;-74
2023/03/14 04:18:43;;;;;;;4.83;1.63;;;;;;;;;;5043715;28;20303;-75
2023/03/14 04:21:10;;;;;;;3.37;1.40;;;;;;;;;;5042254;28;20193;-75
2023/03/14 04:23:44;;;;;;;4.80;1.80;;;;;;;;;;5042074;28;20217;-75
2023/03/14 04:26:10;;;;;;;4.03;2.47;;;;;;;;;;5039795;28;20182;-75
2023/03/14 04:28:38;;;;;;;2.80;1.50;;;;;;;;;;5040313;28;20729;-76
2023/03/14 04:31:12;;;;;;;4.47;1.33;;;;;;;;;;5039992;28;20247;-75
2023/03/14 04:33:38;;;;;;;3.07;1.70;;;;;;;;;;5045658;28;20206;-75
2023/03/14 04:36:06;;;;;;;3.03;1.47;;;;;;;;;;5045408;28;20187;-75
2023/03/14 04:38:32;;;;;;;3.23;1.50;;;;;;;;;;5047223;28;20779;-74
2023/03/14 04:41:00;;;;;;;2.97;1.70;;;;;;;;;;5043865;28;20636;-75
2023/03/14 04:43:30;;;;;;;2.00;1.30;;;;;;;;;;5043001;28;20210;-74
2023/03/14 04:46:07;;;;;;;4.03;1.60;;;;;;;;;;5044344;28;20188;-75
2023/03/14 04:48:34;;;;;;;3.25;1.38;;;;;;;;;;5042320;28;20455;-75
2023/03/14 04:51:00;;;;;;;1.53;1.20;;;;;;;;;;5045576;28;20205;-75
2023/03/14 04:53:30;;;;;;;3.10;1.30;;;;;;;;;;5053520;28;20733;-75
2023/03/14 04:55:58;;;;;;;4.03;2.03;;;;;;;;;;5021527;28;20204;-75
2023/03/14 04:58:30;;;;;;;5.30;1.30;;;;;;;;;;5044602;28;20182;-75
2023/03/14 05:01:03;;;;;;;2.40;1.40;;;;;;;;;;5023378;28;20198;-75
2023/03/14 05:03:48;;;;;;;3.10;1.37;;;;;;;;;;5042754;28;20210;-74
2023/03/14 05:06:21;;;;;;;1.77;1.13;;;;;;;;;;5039950;28;20220;-76
2023/03/14 05:09:06;;;;;;;3.85;1.70;;;;;;;;;;5042685;28;20415;-75
2023/03/14 05:11:42;;;;;;;3.17;1.30;;;;;;;;;;5042002;28;20182;-75
2023/03/14 05:14:27;;;;;;;3.03;1.23;;;;;;;;;;5043761;28;20209;-75
2023/03/14 05:17:14;;;;;;;2.67;1.30;;;;;;;;;;5041465;28;20196;-75
2023/03/14 05:20:00;;;;;;;3.03;1.80;;;;;;;;;;5041063;28;20268;-74
2023/03/14 05:22:50;;;;;;;3.37;1.40;;;;;;;;;;5010588;28;20182;-75
2023/03/14 05:25:37;;;;;;;4.27;1.50;;;;;;;;;;5046498;28;20181;-74
2023/03/14 05:28:19;;;;;;;2.40;1.30;;;;;;;;;;5045718;28;20185;-75
2023/03/14 05:31:06;;;;;;;3.80;1.40;;;;;;;;;;5043644;28;20757;-75
2023/03/14 05:33:53;;;;;;;2.90;1.40;;;;;;;;;;5019177;28;20211;-75
2023/03/14 05:36:45;;;;;;;2.80;1.20;;;;;;;;;;5041804;28;20201;-75
2023/03/14 05:39:23;;;;;;;2.77;1.20;;;;;;;;;;5046724;28;20193;-75
2023/03/14 05:42:09;;;;;;;5.43;1.20;;;;;;;;;;5036900;28;20193;-75
2023/03/14 05:44:51;;;;;;;3.67;1.40;;;;;;;;;;5044640;28;20300;-75
2023/03/14 05:47:44;;;;;;;3.03;1.00;;;;;;;;;;5029310;28;20202;-75
2023/03/14 05:50:33;;;;;;;4.10;1.13;;;;;;;;;;5043322;28;20202;-74
2023/03/14 05:53:19;;;;;;;2.80;1.20;;;;;;;;;;5028205;28;20216;-75
2023/03/14 05:55:54;;;;;;;4.10;1.23;;;;;;;;;;5026210;28;20672;-75
2023/03/14 05:58:34;;;;;;;3.57;1.00;;;;;;;;;;5044880;28;20182;-75
2023/03/14 06:01:10;;;;;;;3.93;1.10;;;;;;;;;;5039950;28;20224;-75
2023/03/14 06:03:56;;;;;;;3.03;1.10;;;;;;;;;;5039056;28;20213;-76
2023/03/14 06:06:22;;;;;;;2.80;1.20;;;;;;;;;;5042683;28;20648;-74
2023/03/14 06:08:48;;;;;;;3.23;1.23;;;;;;;;;;5030339;28;20178;-74
2023/03/14 06:11:14;;;;;;;3.93;1.30;;;;;;;;;;5043095;28;20265;-75
2023/03/14 06:13:41;;;;;;;3.77;1.50;;;;;;;;;;5056217;28;20205;-75
2023/03/14 06:16:08;;;;;;;4.10;1.70;;;;;;;;;;5040886;28;20190;-74
2023/03/14 06:18:35;;;;;;;3.43;1.40;;;;;;;;;;5025360;28;20190;-75
2023/03/14 06:21:01;;;;;;;2.57;1.37;;;;;;;;;;5044517;28;20584;-75
2023/03/14 06:23:30;;;;;;;2.13;1.20;;;;;;;;;;5042478;28;20221;-75
2023/03/14 06:25:57;;;;;;;3.67;1.20;;;;;;;;;;5046285;28;20261;-76
2023/03/14 06:28:25;;;;;;;3.50;1.40;;;;;;;;;;5046097;28;20186;-75
2023/03/14 06:30:51;;;;;;;3.27;1.30;;;;;;;;;;5036993;28;20185;-75
2023/03/14 06:33:17;;;;;;;4.17;1.10;;;;;;;;;;5026936;28;20240;-76
2023/03/14 06:35:43;;;;;;;2.57;1.33;;;;;;;;;;5059251;28;20174;-74
2023/03/14 06:38:13;;;;;;;2.00;1.10;;;;;;;;;;5059285;28;20186;-75
2023/03/14 06:40:39;;;;;;;2.27;1.13;;;;;;;;;;5029323;28;20240;-76
2023/03/14 06:43:09;;;;;;;2.43;1.20;;;;;;;;;;5041187;28;20303;-76
2023/03/14 06:45:37;;;;;;;3.40;1.37;;;;;;;;;;5044725;28;20181;-77
2023/03/14 06:48:04;;;;;;;1.70;1.00;;;;;;;;;;5045424;28;20229;-77
2023/03/14 06:50:37;;;;;;;3.47;1.20;;;;;;;;;;5014299;28;20296;-75
2023/03/14 06:53:04;;;;;;;4.90;1.10;;;;;;;;;;5043491;28;20206;-79
2023/03/14 06:55:31;;;;;;;2.57;0.93;;;;;;;;;;5031055;28;20182;-77
2023/03/14 06:57:57;;;;;;;3.53;1.10;;;;;;;;;;5045305;28;20285;-76
2023/03/14 07:00:24;;;;;;;4.63;1.10;;;;;;;;;;5031803;28;20582;-76
2023/03/14 07:02:54;;;;;;;3.87;1.27;;;;;;;;;;5061055;28;20182;-75
2023/03/14 07:05:26;;;;;;;2.70;1.33;;;;;;;;;;5044093;28;20182;-72
2023/03/14 07:07:52;;;;;;;3.03;1.20;;;;;;;;;;5030476;28;20178;-74
2023/03/14 07:10:19;;;;;;;2.10;1.10;;;;;;;;;;5043731;28;20209;-73
2023/03/14 07:12:45;;;;;;;2.80;1.10;;;;;;;;;;5028006;28;20190;-73
2023/03/14 07:15:11;;;;;;;3.17;1.10;;;;;;;;;;5064223;28;20212;-73
2023/03/14 07:17:37;;;;;;;2.80;1.10;;;;;;;;;;5045313;28;20174;-72
2023/03/14 07:20:05;;;;;;;4.00;1.13;;;;;;;;;;5033568;28;20193;-74
2023/03/14 07:22:31;;;;;;;4.00;1.30;;;;;;;;;;5047416;28;20195;-73
2023/03/14 07:24:57;;;;;;;5.40;1.30;;;;;;;;;;5049145;28;20217;-73
2023/03/14 07:27:25;;;;;;;3.03;1.20;;;;;;;;;;5047614;28;20177;-73
2023/03/14 07:29:51;;;;;;;3.37;1.07;;;;;;;;;;5046892;28;20185;-73
2023/03/14 07:32:18;;;;;;;4.10;1.10;;;;;;;;;;5047009;28;20269;-74
2023/03/14 07:34:44;;;;;;;3.20;1.00;;;;;;;;;;5046204;28;20308;-73
2023/03/14 07:37:11;;;;;;;2.60;1.20;;;;;;;;;;5049023;28;20212;-73
2023/03/14 07:39:37;;;;;;;2.83;1.00;;;;;;;;;;5048623;28;20189;-74
2023/03/14 07:42:07;;;;;;;2.83;1.30;;;;;;;;;;5043937;28;20192;-72
2023/03/14 07:44:54;;;;;;;2.53;1.17;;;;;;;;;;5041799;28;20274;-73
2023/03/14 07:47:20;;;;;;;4.37;1.43;;;;;;;;;;5048919;28;20273;-73
2023/03/14 07:49:46;;;;;;;2.77;1.30;;;;;;;;;;5042886;28;20182;-73
2023/03/14 07:52:12;;;;;;;3.33;1.10;;;;;;;;;;5045090;28;20280;-73
2023/03/14 07:54:38;;;;;;;3.83;1.30;;;;;;;;;;5047694;28;20202;-73
2023/03/14 07:57:04;;;;;;;4.20;1.20;;;;;;;;;;5049799;28;20916;-74
2023/03/14 07:59:30;;;;;;;3.47;1.20;;;;;;;;;;5050432;28;20203;-72
2023/03/14 08:01:56;;;;;;;2.13;1.00;;;;;;;;;;5046810;28;20653;-73
2023/03/14 08:04:23;;;;;;;4.93;1.80;;;;;;;;;;5046870;28;20705;-72
2023/03/14 08:06:49;;;;;;;1.83;1.00;;;;;;;;;;5050833;28;20189;-72
2023/03/14 08:09:15;;;;;;;3.37;1.23;;;;;;;;;;5048293;28;20181;-72
2023/03/14 08:11:41;;;;;;;3.23;1.00;;;;;;;;;;5033740;28;20685;-73
2023/03/14 08:14:07;;;;;;;3.33;1.00;;;;;;;;;;5047750;28;20201;-73
2023/03/14 08:16:34;;;;;;;2.53;0.90;;;;;;;;;;5045734;28;20273;-72
2023/03/14 08:19:00;;;;;;;3.63;1.20;;;;;;;;;;5048166;28;20194;-73
2023/03/14 08:21:26;;;;;;;3.40;1.20;;;;;;;;;;5048242;28;20190;-72
2023/03/14 08:23:52;;;;;;;2.30;1.00;;;;;;;;;;5050444;28;20499;-72
2023/03/14 08:26:18;;;;;;;6.47;1.43;;;;;;;;;;5048988;28;20261;-73
2023/03/14 08:28:44;;;;;;;4.20;1.20;;;;;;;;;;5053451;28;20623;-72
2023/03/14 08:31:10;;;;;;;4.30;1.00;;;;;;;;;;5046806;28;20200;-73
2023/03/14 08:33:36;;;;;;;7.80;1.50;;;;;;;;;;5065561;28;20352;-73
2023/03/14 08:36:02;;;;;;;2.93;1.07;;;;;;;;;;5046659;28;20858;-73
2023/03/14 08:38:29;;;;;;;2.13;1.00;;;;;;;;;;5044094;28;20725;-74
2023/03/14 08:40:56;;;;;;;2.37;0.90;;;;;;;;;;5045552;28;20651;-73
2023/03/14 08:43:23;;;;;;;1.70;0.90;;;;;;;;;;5053634;28;20625;-73
2023/03/14 08:45:49;;;;;;;2.30;0.90;;;;;;;;;;5049358;28;20182;-72
2023/03/14 08:48:15;;;;;;;1.80;1.00;;;;;;;;;;5051532;28;20182;-74
2023/03/14 08:50:41;;;;;;;1.93;1.10;;;;;;;;;;5049753;28;20278;-77
2023/03/14 08:53:07;;;;;;;1.80;1.00;;;;;;;;;;5047093;28;20206;-74
2023/03/14 08:55:33;;;;;;;2.00;1.00;;;;;;;;;;5028386;28;20265;-72
2023/03/14 08:57:59;;;;;;;2.27;1.00;;;;;;;;;;5043465;28;20188;-73
2023/03/14 09:00:26;;;;;;;3.87;1.10;;;;;;;;;;5039135;28;20220;-72
2023/03/14 09:02:52;;;;;;;2.97;1.00;;;;;;;;;;5043178;28;20182;-73
2023/03/14 09:05:18;;;;;;;2.20;0.80;;;;;;;;;;5046754;28;20718;-73
2023/03/14 09:07:44;;;;;;;1.73;0.80;;;;;;;;;;5044664;28;20167;-73
2023/03/14 09:10:11;;;;;;;1.87;0.90;;;;;;;;;;5047557;28;20185;-71
2023/03/14 09:12:37;;;;;;;2.03;0.80;;;;;;;;;;5045811;28;20217;-73
2023/03/14 09:15:03;;;;;;;2.37;0.80;;;;;;;;;;5046592;28;20263;-73
2023/03/14 09:17:29;;;;;;;2.73;1.00;;;;;;;;;;5042432;28;20186;-73
2023/03/14 09:19:56;;;;;;;1.90;0.90;;;;;;;;;;5029167;28;20551;-74
2023/03/14 09:22:22;;;;;;;1.87;0.70;;;;;;;;;;5026993;28;20249;-73
2023/03/14 09:24:48;;;;;;;1.37;0.90;;;;;;;;;;5043495;28;20221;-74
2023/03/14 09:27:14;;;;;;;2.63;0.70;;;;;;;;;;5045794;28;20272;-73
2023/03/14 09:29:40;;;;;;;5.53;0.80;;;;;;;;;;5044382;28;20214;-74
2023/03/14 09:32:06;;;;;;;1.93;0.90;;;;;;;;;;5045466;28;20178;-73
2023/03/14 09:34:33;;;;;;;3.40;1.20;;;;;;;;;;5043782;28;20202;-73
2023/03/14 09:37:00;;;;;;;1.90;0.97;;;;;;;;;;5045912;28;20178;-73
2023/03/14 09:39:26;;;;;;;2.73;0.90;;;;;;;;;;5043945;28;20205;-73
2023/03/14 09:41:55;;;;;;;2.73;0.90;;;;;;;;;;5046335;28;20186;-73
2023/03/14 09:44:29;;;;;;;4.37;0.90;;;;;;;;;;5045696;28;20468;-74
2023/03/14 09:46:57;;;;;;;2.50;0.70;;;;;;;;;;5046184;28;20192;-73
2023/03/14 09:49:42;;;;;;;1.13;0.70;;;;;;;;;;5043805;28;20213;-73
2023/03/14 09:52:15;;;;;;;2.13;0.90;;;;;;;;;;5026618;28;20240;-73
2023/03/14 09:54:53;;;;;;;2.53;1.00;;;;;;;;;;5042951;28;20206;-73
2023/03/14 09:57:20;;;;;;;1.20;0.53;;;;;;;;;;5046421;28;20177;-73
2023/03/14 09:59:48;;;;;;;1.20;0.73;;;;;;;;;;5029211;28;20208;-73
2023/03/14 10:02:35;;;;;;;2.13;0.93;;;;;;;;;;5044115;28;20191;-73
2023/03/14 10:05:02;;;;;;;2.17;0.63;;;;;;;;;;5040075;28;20312;-73
2023/03/14 10:07:29;;;;;;;1.40;0.73;;;;;;;;;;5042067;28;20185;-73
2023/03/14 10:09:56;;;;;;;1.50;0.77;;;;;;;;;;5040105;28;20178;-73
2023/03/14 10:12:31;;;;;;;2.53;0.80;;;;;;;;;;5042877;28;20194;-73
2023/03/14 10:15:02;;;;;;;1.17;0.60;;;;;;;;;;5042288;28;20281;-73
2023/03/14 10:17:30;;;;;;;1.53;0.80;;;;;;;;;;5041648;28;20194;-73
2023/03/14 10:19:57;;;;;;;1.10;0.70;;;;;;;;;;5041714;28;20182;-73
2023/03/14 10:22:25;;;;;;;0.80;0.80;;;;;;;;;;5041508;28;20558;-72
2023/03/14 10:24:56;;;;;;;1.33;0.60;;;;;;;;;;5040713;28;20701;-73
2023/03/14 10:27:28;;;;;;;1.60;0.60;;;;;;;;;;5043370;28;20186;-73
2023/03/14 10:30:01;;;;;;;0.63;0.60;;;;;;;;;;5044366;28;20264;-73
2023/03/14 10:32:29;;;;;;;2.33;0.80;;;;;;;;;;5037366;28;20178;-73
2023/03/14 10:35:05;;;;;;;1.00;0.73;;;;;;;;;;5043076;28;20571;-73
2023/03/14 10:37:31;;;;;;;1.47;0.67;;;;;;;;;;5026296;28;20197;-73
2023/03/14 10:40:05;;;;;;;1.07;0.57;;;;;;;;;;5043687;28;20609;-72
2023/03/14 10:42:39;;;;;;;0.67;0.67;;;;;;;;;;5042869;28;20182;-73
2023/03/14 10:45:10;;;;;;;1.90;0.80;;;;;;;;;;5042823;28;20240;-74
2023/03/14 10:47:36;;;;;;;0.97;0.70;;;;;;;;;;5043523;28;20181;-73
2023/03/14 10:50:23;;;;;;;1.20;0.70;;;;;;;;;;5046890;28;20185;-74
2023/03/14 10:52:50;;;;;;;1.37;0.90;;;;;;;;;;5040295;28;20190;-73
2023/03/14 10:55:16;;;;;;;2.27;0.80;;;;;;;;;;5042973;28;20276;-72
2023/03/14 10:57:43;;;;;;;2.80;1.00;;;;;;;;;;5041104;28;20197;-73
2023/03/14 11:00:16;;;;;;;1.33;0.80;;;;;;;;;;5040412;28;20213;-73
2023/03/14 11:02:48;;;;;;;0.93;0.83;;;;;;;;;;5039221;28;20182;-73
2023/03/14 11:05:14;;;;;;;1.50;0.87;;;;;;;;;;5042133;28;20206;-73
2023/03/14 11:07:41;;;;;;;1.87;0.90;;;;;;;;;;5026470;28;20194;-73
2023/03/14 11:10:20;;;;;;;1.57;0.93;;;;;;;;;;5043730;28;20196;-73
2023/03/14 11:13:02;;;;;;;2.50;1.30;;;;;;;;;;5045344;28;20181;-73
2023/03/14 11:15:31;;;;;;;2.10;1.20;;;;;;;;;;5041944;28;20193;-73
2023/03/14 11:18:21;;;;;;;1.23;1.10;;;;;;;;;;5044472;28;20225;-73
2023/03/14 11:20:56;;;;;;;3.00;1.37;;;;;;;;;;5044254;28;20181;-73
2023/03/14 11:23:28;;;;;;;2.10;1.43;;;;;;;;;;5040398;28;20218;-73
2023/03/14 11:26:02;;;;;;;2.57;1.73;;;;;;;;;;5043578;28;20551;-73
2023/03/14 11:28:28;;;;;;;3.50;1.83;;;;;;;;;;5041344;28;20186;-73
2023/03/14 11:30:55;;;;;;;3.50;1.70;;;;;;;;;;5040205;28;20693;-72
2023/03/14 11:33:28;;;;;;;2.30;1.23;;;;;;;;;;5027220;28;20251;-73
2023/03/14 11:36:15;;;;;;;2.30;1.10;;;;;;;;;;5040071;28;20182;-72
2023/03/14 11:38:52;;;;;;;2.67;1.10;;;;;;;;;;5041886;28;20738;-73
2023/03/14 11:41:20;;;;;;;2.03;1.40;;;;;;;;;;5059819;28;20178;-73
2023/03/14 11:43:55;;;;;;;2.03;0.90;;;;;;;;;;5028294;28;20221;-74
2023/03/14 11:46:27;;;;;;;1.43;0.83;;;;;;;;;;5046289;28;20189;-74
2023/03/14 11:48:56;;;;;;;1.70;0.70;;;;;;;;;;5029649;28;20196;-73
2023/03/14 11:51:42;;;;;;;1.00;0.90;;;;;;;;;;5045084;28;20743;-74
2023/03/14 11:54:34;;;;;;;1.40;0.90;;;;;;;;;;5042308;28;20658;-72
2023/03/14 11:57:02;;;;;;;3.30;0.90;;;;;;;;;;5062163;28;20189;-74
2023/03/14 11:59:30;;;;;;;1.00;0.80;;;;;;;;;;5047043;28;20202;-74
2023/03/14 12:01:57;;;;;;;2.03;1.17;;;;;;;;;;5048239;28;20354;-72
2023/03/14 12:04:31;;;;;;;1.47;1.10;;;;;;;;;;5049771;28;20716;-77
2023/03/14 12:07:02;;;;;;;3.63;1.23;;;;;;;;;;5062166;28;20186;-72
2023/03/14 12:09:29;;;;;;;1.17;1.00;;;;;;;;;;5050950;28;20185;-77
2023/03/14 12:12:04;;;;;;;1.30;1.20;;;;;;;;;;5053161;28;20178;-76
2023/03/14 12:14:32;;;;;;;2.50;1.30;;;;;;;;;;5049065;28;20201;-76
2023/03/14 12:17:18;;;;;;;1.20;1.10;;;;;;;;;;5051413;28;20185;-74
2023/03/14 12:19:46;;;;;;;1.70;1.10;;;;;;;;;;5049146;28;20197;-74
2023/03/14 12:22:19;;;;;;;1.20;0.90;;;;;;;;;;5052686;28;20243;-79
2023/03/14 12:24:50;;;;;;;1.20;0.93;;;;;;;;;;5049326;28;20225;-79
2023/03/14 12:27:37;;;;;;;1.17;1.00;;;;;;;;;;5044507;28;20245;-75
2023/03/14 12:30:10;;;;;;;0.70;0.60;;;;;;;;;;5048796;28;20193;-75
2023/03/14 12:32:37;;;;;;;2.73;0.50;;;;;;;;;;5053395;28;20182;-74
2023/03/14 12:35:08;;;;;;;0.40;0.40;;;;;;;;;;5044907;28;20234;-75
2023/03/14 12:37:37;;;;;;;0.50;0.50;;;;;;;;;;5049759;28;20201;-72
2023/03/14 12:40:17;;;;;;;2.13;0.40;;;;;;;;;;5048895;28;20239;-74
2023/03/14 12:42:46;;;;;;;0.40;0.40;;;;;;;;;;5053211;28;20272;-74
2023/03/14 12:45:12;;;;;;;0.40;0.40;;;;;;;;;;5049733;28;20262;-73
2023/03/14 12:47:38;;;;;;;0.40;0.40;;;;;;;;;;5035748;28;20653;-74
2023/03/14 12:50:14;;;;;;;0.90;0.47;;;;;;;;;;5036515;28;20192;-75
2023/03/14 12:53:05;;;;;;;0.60;0.50;;;;;;;;;;5049638;28;20309;-74
2023/03/14 12:55:39;;;;;;;0.50;0.50;;;;;;;;;;5051419;28;20186;-75
2023/03/14 12:58:13;;;;;;;0.60;0.60;;;;;;;;;;5031481;28;20189;-75
2023/03/14 13:00:40;;;;;;;0.70;0.50;;;;;;;;;;5046116;28;20277;-74
2023/03/14 13:03:33;;;;;;;0.60;0.60;;;;;;;;;;5051084;28;20220;-73
2023/03/14 13:06:03;;;;;;;0.60;0.60;;;;;;;;;;5046757;28;20194;-73
2023/03/14 13:08:37;;;;;;;0.47;0.47;;;;;;;;;;5044854;28;20206;-75
2023/03/14 13:11:06;;;;;;;0.63;0.63;;;;;;;;;;5034739;28;20220;-76
2023/03/14 13:13:35;;;;;;;0.60;0.60;;;;;;;;;;5042223;28;20237;-74
2023/03/14 13:16:04;;;;;;;0.80;0.80;;;;;;;;;;5046298;28;20696;-74
2023/03/14 13:18:30;;;;;;;0.67;0.67;;;;;;;;;;5045625;28;20312;-74
2023/03/14 13:21:03;;;;;;;1.37;0.73;;;;;;;;;;5031581;28;20205;-79
2023/03/14 13:23:34;;;;;;;0.57;0.57;;;;;;;;;;5051298;28;20313;-75
2023/03/14 13:26:01;;;;;;;0.73;0.60;;;;;;;;;;5051636;28;20186;-74
2023/03/14 13:28:28;;;;;;;1.20;0.70;;;;;;;;;;5049181;28;20537;-73
2023/03/14 13:30:56;;;;;;;1.33;0.70;;;;;;;;;;5048937;28;20244;-74
2023/03/14 13:33:23;;;;;;;1.00;0.83;;;;;;;;;;5050627;28;20284;-73
2023/03/14 13:36:00;;;;;;;1.27;1.03;;;;;;;;;;5032307;28;20567;-74
2023/03/14 13:38:27;;;;;;;0.90;0.90;;;;;;;;;;5044988;28;20177;-73
2023/03/14 13:41:01;;;;;;;0.90;0.90;;;;;;;;;;5046059;28;20273;-73
2023/03/14 13:43:32;;;;;;;1.00;0.90;;;;;;;;;;5044383;28;20225;-73
2023/03/14 13:46:03;;;;;;;1.00;0.90;;;;;;;;;;5044778;28;20178;-74
2023/03/14 13:48:30;;;;;;;2.13;1.00;;;;;;;;;;5046349;28;20253;-73
2023/03/14 13:50:59;;;;;;;1.30;1.00;;;;;;;;;;5046308;28;20193;-73
2023/03/14 13:53:26;;;;;;;2.50;1.20;;;;;;;;;;5027238;28;20214;-74
2023/03/14 13:55:52;;;;;;;1.40;1.10;;;;;;;;;;5045155;28;20336;-74
2023/03/14 13:58:22;;;;;;;1.47;1.17;;;;;;;;;;5044038;28;20288;-74
2023/03/14 14:01:04;;;;;;;1.10;1.00;;;;;;;;;;5039236;28;20676;-74
2023/03/14 14:03:31;;;;;;;1.70;1.00;;;;;;;;;;5044253;28;20244;-73
2023/03/14 14:05:58;;;;;;;1.27;0.93;;;;;;;;;;5043987;28;20709;-73
2023/03/14 14:08:25;;;;;;;1.57;1.00;;;;;;;;;;5044318;28;20583;-75
2023/03/14 14:10:53;;;;;;;1.73;0.97;;;;;;;;;;5044908;28;20197;-74
2023/03/14 14:13:21;;;;;;;1.60;0.90;;;;;;;;;;5043411;28;20612;-74
2023/03/14 14:15:49;;;;;;;2.37;1.00;;;;;;;;;;5045226;28;20201;-73
2023/03/14 14:18:18;;;;;;;2.50;1.00;;;;;;;;;;5045794;28;20181;-73
2023/03/14 14:20:46;;;;;;;1.50;0.93;;;;;;;;;;5043637;28;20187;-73
2023/03/14 14:23:25;;;;;;;1.30;0.90;;;;;;;;;;5042594;28;20201;-74
2023/03/14 14:25:52;;;;;;;1.27;0.90;;;;;;;;;;5045103;28;20201;-74
2023/03/14 14:28:27;;;;;;;1.20;1.10;;;;;;;;;;5048941;28;20169;-73
2023/03/14 14:31:13;;;;;;;2.20;1.03;;;;;;;;;;5024586;28;20295;-74
2023/03/14 14:33:51;;;;;;;2.90;1.10;;;;;;;;;;5045218;28;20202;-73
2023/03/14 14:36:22;;;;;;;4.67;1.40;;;;;;;;;;5041401;28;20194;-73
2023/03/14 14:39:04;;;;;;;0.80;0.80;;;;;;;;;;5025092;28;20243;-74
2023/03/14 14:41:32;;;;;;;1.33;0.90;;;;;;;;;;5037801;28;20181;-73
2023/03/14 14:43:59;;;;;;;1.93;0.97;;;;;;;;;;5044672;28;20211;-73
2023/03/14 14:46:27;;;;;;;2.37;0.90;;;;;;;;;;5023398;28;20204;-74
2023/03/14 14:48:56;;;;;;;1.93;0.90;;;;;;;;;;5044059;28;20563;-73
2023/03/14 14:51:23;;;;;;;3.17;0.90;;;;;;;;;;5047370;28;20207;-74
2023/03/14 14:53:50;;;;;;;1.00;0.80;;;;;;;;;;5023870;28;20205;-74
2023/03/14 14:56:17;;;;;;;1.77;0.80;;;;;;;;;;5043682;28;20187;-73
2023/03/14 14:58:47;;;;;;;1.40;0.80;;;;;;;;;;5045051;28;20230;-74
2023/03/14 15:01:17;;;;;;;0.73;0.70;;;;;;;;;;5023263;28;20208;-73